Terminal Aerodrome Forecast
Issued by NWS Omaha/Valley, NE

Home | Current Version | Previous Version | Text Only | Print | Product List | Glossary On
Versions: 1 2 3 4 5 6 7 8 9 10 11 12 13 14 15 16 17 18 19 20 21 22 23 24 25 26 27 28 29 30 31 32 33 34 35 36
000
FTUS43 KOAX 180902 AAA
TAFLNK
TAF AMD
KLNK 180902Z 1809/1906 13005KT 5SM BR SCT007
      TEMPO 1810/1814 2SM BR BKN005
     FM181600 14010KT P6SM SCT020 BKN120
     FM181900 14013KT P6SM SCT040
     FM190000 13009KT P6SM SCT040 BKN100=

USA.gov is the U.S. government's official web portal to all federal, state and local government web resources and services.